Time;durP1;ratioP1;P1;durP2;ratioP2;P2;SDS_P1;SDS_P2;PMS_P1;PMS_P2;Temp;Humidity;BMP_temperature;BMP_pressure;BME280_temperature;BME280_humidity;BME280_pressure;Samples;Min_cycle;Max_cycle;Signal;HPM_P1;HPM_P2
2022/03/08 00:01:41;;;;;;;;;;;;;;;-4.42;69.92;98645.25;4912785;29;19938;-62
2022/03/08 00:04:07;;;;;;;;;;;;;;;-4.35;70.14;98639.28;4902938;29;19931;-63
2022/03/08 00:06:32;;;;;;;;;;;;;;;-4.24;69.00;98665.81;4916820;29;19950;-62
2022/03/08 00:08:58;;;;;;;;;;;;;;;-4.28;69.65;98651.59;4916652;29;20331;-64
2022/03/08 00:11:24;;;;;;;;;;;;;;;-4.31;69.85;98638.97;4916670;29;20412;-65
2022/03/08 00:13:51;;;;;;;;;;;;;;;-4.31;69.33;98641.56;4916813;29;20014;-64
2022/03/08 00:16:17;;;;;;;;;;;;;;;-4.34;68.98;98645.28;4916951;29;20006;-64
2022/03/08 00:18:44;;;;;;;;;;;;;;;-4.38;69.85;98664.69;4915488;29;19935;-65
2022/03/08 00:21:10;;;;;;;;;;;;;;;-4.36;69.68;98658.34;4916761;29;20356;-64
2022/03/08 00:23:36;;;;;;;;;;;;;;;-4.27;69.35;98656.59;4899830;29;19939;-64
2022/03/08 00:26:02;;;;;;;;;;;;;;;-4.15;69.22;98667.44;4904211;29;19927;-64
2022/03/08 00:28:28;;;;;;;;;;;;;;;-4.10;69.72;98654.84;4916567;29;19935;-65
2022/03/08 00:30:54;;;;;;;;;;;;;;;-4.18;69.68;98662.59;4916806;29;19982;-64
2022/03/08 00:33:20;;;;;;;;;;;;;;;-4.14;69.46;98663.91;4899584;29;19931;-64
2022/03/08 00:35:46;;;;;;;;;;;;;;;-4.05;70.25;98662.13;4916511;29;20030;-63
2022/03/08 00:38:11;;;;;;;;;;;;;;;-4.13;69.56;98660.34;4915493;29;20033;-64
2022/03/08 00:40:37;;;;;;;;;;;;;;;-4.09;69.44;98663.41;4916593;29;19934;-63
2022/03/08 00:43:04;;;;;;;;;;;;;;;-4.08;69.14;98672.81;4914523;29;19970;-64
2022/03/08 00:45:33;;;;;;;;;;;;;;;-4.10;69.42;98672.94;4916064;29;19931;-64
2022/03/08 00:47:58;;;;;;;;;;;;;;;-4.26;69.59;98663.41;4904138;29;19938;-64
2022/03/08 00:50:26;;;;;;;;;;;;;;;-4.19;69.01;98669.53;4897213;29;19928;-64
2022/03/08 00:52:52;;;;;;;;;;;;;;;-4.29;69.97;98670.66;4895860;29;20034;-64
2022/03/08 00:55:19;;;;;;;;;;;;;;;-4.40;70.36;98671.78;4897283;29;19975;-64
2022/03/08 00:57:45;;;;;;;;;;;;;;;-4.39;70.35;98666.44;4900245;29;19978;-65
2022/03/08 01:00:12;;;;;;;;;;;;;;;-4.35;70.11;98674.72;4914556;29;20393;-66
2022/03/08 01:02:38;;;;;;;;;;;;;;;-4.40;70.16;98680.34;4915969;29;20230;-63
2022/03/08 01:05:03;;;;;;;;;;;;;;;-4.42;70.54;98668.53;4914588;29;19934;-66
2022/03/08 01:07:29;;;;;;;;;;;;;;;-4.34;70.28;98676.31;4898688;29;19931;-65
2022/03/08 01:09:55;;;;;;;;;;;;;;;-4.24;69.62;98669.22;4916144;29;19927;-64
2022/03/08 01:12:20;;;;;;;;;;;;;;;-4.30;70.00;98681.97;4915961;29;19943;-64
2022/03/08 01:14:46;;;;;;;;;;;;;;;-4.36;70.02;98675.66;4914649;29;19998;-66
2022/03/08 01:17:12;;;;;;;;;;;;;;;-4.29;69.92;98691.34;4915318;29;19931;-61
2022/03/08 01:19:37;;;;;;;;;;;;;;;-4.46;69.99;98683.56;4916213;29;19931;-62
2022/03/08 01:22:03;;;;;;;;;;;;;;;-4.35;70.24;98693.63;4911492;29;19931;-62
2022/03/08 01:24:30;;;;;;;;;;;;;;;-4.28;68.90;98686.03;4879884;29;20302;-62
2022/03/08 01:26:56;;;;;;;;;;;;;;;-4.43;69.40;98690.22;4902306;29;19938;-62
2022/03/08 01:29:23;;;;;;;;;;;;;;;-4.43;70.27;98693.59;4897121;29;19970;-61
2022/03/08 01:31:48;;;;;;;;;;;;;;;-4.37;69.41;98695.56;4896946;29;19971;-63
2022/03/08 01:34:15;;;;;;;;;;;;;;;-4.39;68.84;98691.50;4896036;29;20391;-62
2022/03/08 01:36:41;;;;;;;;;;;;;;;-4.50;69.55;98684.88;4897007;29;19974;-62
2022/03/08 01:39:07;;;;;;;;;;;;;;;-4.46;70.50;98683.56;4893903;29;20318;-61
2022/03/08 01:41:34;;;;;;;;;;;;;;;-4.46;69.34;98691.34;4914719;29;19927;-62
2022/03/08 01:43:59;;;;;;;;;;;;;;;-4.51;70.02;98693.59;4910548;29;19938;-62
2022/03/08 01:46:25;;;;;;;;;;;;;;;-4.48;69.54;98705.41;4915660;29;20024;-62
2022/03/08 01:48:51;;;;;;;;;;;;;;;-4.51;70.33;98705.72;4897481;29;20021;-63
2022/03/08 01:51:16;;;;;;;;;;;;;;;-4.49;70.34;98699.41;4912485;29;19927;-61
2022/03/08 01:53:42;;;;;;;;;;;;;;;-4.49;70.28;98696.03;4915378;29;20374;-62
2022/03/08 01:56:08;;;;;;;;;;;;;;;-4.46;69.81;98714.63;4915873;29;19927;-60
2022/03/08 01:58:34;;;;;;;;;;;;;;;-4.72;70.72;98713.88;4883582;29;20313;-61
2022/03/08 02:00:59;;;;;;;;;;;;;;;-4.69;70.81;98721.34;4912942;29;19931;-62
2022/03/08 02:03:25;;;;;;;;;;;;;;;-4.72;70.45;98712.09;4914845;29;19931;-66
2022/03/08 02:05:50;;;;;;;;;;;;;;;-4.77;71.30;98709.16;4915924;29;19935;-65
2022/03/08 02:08:16;;;;;;;;;;;;;;;-4.73;71.78;98722.63;4915355;29;19938;-66
2022/03/08 02:10:41;;;;;;;;;;;;;;;-4.79;71.18;98729.22;4915763;29;20304;-62
2022/03/08 02:13:07;;;;;;;;;;;;;;;-4.75;71.05;98704.66;4902512;29;20067;-65
2022/03/08 02:15:32;;;;;;;;;;;;;;;-4.70;70.74;98712.78;4896787;29;20026;-64
2022/03/08 02:17:59;;;;;;;;;;;;;;;-4.77;71.45;98708.38;4896636;29;19931;-64
2022/03/08 02:20:26;;;;;;;;;;;;;;;-4.76;71.66;98720.31;4903732;29;19928;-65
2022/03/08 02:22:52;;;;;;;;;;;;;;;-4.73;70.89;98733.78;4906684;29;19980;-65
2022/03/08 02:25:18;;;;;;;;;;;;;;;-4.76;70.95;98733.25;4906771;29;19935;-65
2022/03/08 02:27:45;;;;;;;;;;;;;;;-4.78;70.69;98732.63;4905479;29;19932;-65
2022/03/08 02:30:11;;;;;;;;;;;;;;;-4.71;70.77;98743.94;4895163;29;19987;-64
2022/03/08 02:32:37;;;;;;;;;;;;;;;-4.63;70.72;98733.63;4912397;29;19931;-66
2022/03/08 02:35:04;;;;;;;;;;;;;;;-4.75;70.77;98747.81;4914186;29;19937;-65
2022/03/08 02:37:36;;;;;;;;;;;;;;;-4.84;71.87;98747.78;4913817;29;20029;-65
2022/03/08 02:40:03;;;;;;;;;;;;;;;-4.86;71.72;98754.88;4914183;29;19930;-64
2022/03/08 02:42:28;;;;;;;;;;;;;;;-4.95;70.67;98754.97;4907961;29;20437;-63
2022/03/08 02:44:54;;;;;;;;;;;;;;;-4.94;71.17;98744.50;4898232;29;19927;-63
2022/03/08 02:47:21;;;;;;;;;;;;;;;-4.78;71.39;98771.41;4918303;29;19958;-66
2022/03/08 02:49:46;;;;;;;;;;;;;;;-4.85;70.27;98750.53;4918568;29;19927;-66
2022/03/08 02:52:12;;;;;;;;;;;;;;;-4.81;70.57;98770.72;4916204;29;19978;-65
2022/03/08 02:54:37;;;;;;;;;;;;;;;-4.84;70.99;98760.69;4918031;29;19937;-64
2022/03/08 02:57:03;;;;;;;;;;;;;;;-4.80;71.36;98761.19;4914146;29;19931;-65
2022/03/08 02:59:29;;;;;;;;;;;;;;;-4.81;70.40;98775.09;4901211;29;19927;-64
2022/03/08 03:01:54;;;;;;;;;;;;;;;-4.84;69.99;98775.41;4914852;29;20400;-63
2022/03/08 03:04:20;;;;;;;;;;;;;;;-4.92;70.62;98773.56;4915640;29;20360;-64
2022/03/08 03:06:45;;;;;;;;;;;;;;;-4.86;70.47;98782.50;4918497;29;20456;-62
2022/03/08 03:09:11;;;;;;;;;;;;;;;-4.80;69.72;98787.84;4918059;29;19935;-66
2022/03/08 03:11:37;;;;;;;;;;;;;;;-4.91;70.06;98775.22;4917894;29;19927;-63
2022/03/08 03:14:03;;;;;;;;;;;;;;;-5.02;70.59;98786.63;4898023;29;19938;-66
2022/03/08 03:16:28;;;;;;;;;;;;;;;-4.84;70.62;98796.91;4902481;29;19942;-64
2022/03/08 03:18:54;;;;;;;;;;;;;;;-4.82;69.38;98782.06;4917959;29;20393;-64
2022/03/08 03:21:19;;;;;;;;;;;;;;;-4.75;69.87;98789.19;4917803;29;19928;-63
2022/03/08 03:23:45;;;;;;;;;;;;;;;-4.83;69.37;98790.75;4917947;29;19938;-63
2022/03/08 03:26:10;;;;;;;;;;;;;;;-4.80;69.61;98798.19;4916322;29;19931;-63
2022/03/08 03:28:36;;;;;;;;;;;;;;;-4.87;69.50;98796.41;4916232;29;19931;-62
2022/03/08 03:31:02;;;;;;;;;;;;;;;-4.87;69.63;98811.91;4916497;29;19927;-64
2022/03/08 03:33:27;;;;;;;;;;;;;;;-4.93;69.25;98805.56;4917524;29;19931;-65
2022/03/08 03:35:53;;;;;;;;;;;;;;;-5.12;69.95;98816.09;4917905;29;19982;-65
2022/03/08 03:38:19;;;;;;;;;;;;;;;-5.13;70.30;98802.38;4917843;29;20393;-65
2022/03/08 03:40:44;;;;;;;;;;;;;;;-5.12;69.59;98803.19;4917615;29;19934;-65
2022/03/08 03:43:11;;;;;;;;;;;;;;;-5.23;69.95;98804.25;4905155;29;20291;-64
2022/03/08 03:45:36;;;;;;;;;;;;;;;-5.20;70.02;98813.47;4908646;29;19966;-63
2022/03/08 03:48:02;;;;;;;;;;;;;;;-5.22;70.49;98815.38;4917465;29;19985;-62
2022/03/08 03:50:28;;;;;;;;;;;;;;;-5.16;70.24;98809.63;4917031;29;19934;-62
2022/03/08 03:52:54;;;;;;;;;;;;;;;-5.09;71.11;98811.47;4907180;29;19931;-62
2022/03/08 03:55:19;;;;;;;;;;;;;;;-5.17;69.96;98821.72;4898049;29;20523;-64
2022/03/08 03:57:45;;;;;;;;;;;;;;;-5.27;70.64;98814.03;4899234;29;19939;-63
2022/03/08 04:00:11;;;;;;;;;;;;;;;-5.17;70.44;98823.50;4917015;29;19927;-63
2022/03/08 04:02:39;;;;;;;;;;;;;;;-5.23;71.00;98831.88;4908942;29;19931;-62
2022/03/08 04:05:06;;;;;;;;;;;;;;;-5.23;70.66;98834.44;4896734;29;19927;-62
2022/03/08 04:07:32;;;;;;;;;;;;;;;-5.21;70.68;98835.09;4900141;29;19936;-66
2022/03/08 04:09:57;;;;;;;;;;;;;;;-5.23;70.54;98837.03;4900570;29;19935;-65
2022/03/08 04:12:23;;;;;;;;;;;;;;;-5.25;70.79;98835.38;4916946;29;19931;-63
2022/03/08 04:14:48;;;;;;;;;;;;;;;-5.38;71.51;98826.38;4915650;29;19927;-64
2022/03/08 04:17:14;;;;;;;;;;;;;;;-5.33;71.31;98835.31;4916267;29;19946;-60
2022/03/08 04:19:40;;;;;;;;;;;;;;;-5.28;70.91;98842.63;4916749;29;19975;-64
2022/03/08 04:22:06;;;;;;;;;;;;;;;-5.30;70.62;98845.34;4915797;29;19978;-63
2022/03/08 04:24:32;;;;;;;;;;;;;;;-5.35;71.02;98844.19;4916581;29;19927;-63
2022/03/08 04:26:58;;;;;;;;;;;;;;;-5.29;71.22;98847.00;4916520;29;19953;-65
2022/03/08 04:29:23;;;;;;;;;;;;;;;-5.22;70.45;98857.53;4915690;29;20407;-63
2022/03/08 04:31:49;;;;;;;;;;;;;;;-5.25;70.44;98848.31;4914987;29;19962;-64
2022/03/08 04:34:15;;;;;;;;;;;;;;;-5.16;70.61;98853.53;4880932;29;19927;-63
2022/03/08 04:36:40;;;;;;;;;;;;;;;-5.18;70.53;98863.22;4897871;29;19934;-63
2022/03/08 04:39:06;;;;;;;;;;;;;;;-5.15;70.66;98871.47;4906465;29;19970;-69
2022/03/08 04:41:31;;;;;;;;;;;;;;;-5.13;70.45;98866.16;4916469;29;19927;-66
2022/03/08 04:43:57;;;;;;;;;;;;;;;-5.14;69.65;98874.91;4915311;29;19931;-67
2022/03/08 04:46:23;;;;;;;;;;;;;;;-5.18;70.01;98873.53;4916167;29;20377;-66
2022/03/08 04:48:48;;;;;;;;;;;;;;;-5.27;70.00;98877.84;4915429;29;19931;-64
2022/03/08 04:51:14;;;;;;;;;;;;;;;-5.29;71.09;98880.59;4916491;29;20038;-64
2022/03/08 04:53:40;;;;;;;;;;;;;;;-5.40;70.85;98892.91;4916017;29;20021;-66
2022/03/08 04:56:05;;;;;;;;;;;;;;;-5.49;70.31;98895.41;4914815;29;19934;-63
2022/03/08 04:58:31;;;;;;;;;;;;;;;-5.41;70.88;98905.00;4902537;29;19942;-61
2022/03/08 05:00:56;;;;;;;;;;;;;;;-5.38;70.17;98898.72;4906018;29;20194;-63
2022/03/08 05:03:22;;;;;;;;;;;;;;;-5.31;70.51;98890.25;4915778;29;20310;-63
2022/03/08 05:05:48;;;;;;;;;;;;;;;-5.43;70.77;98906.13;4906842;29;19985;-64
2022/03/08 05:08:14;;;;;;;;;;;;;;;-5.29;70.38;98897.84;4911764;29;19934;-64
2022/03/08 05:10:40;;;;;;;;;;;;;;;-5.19;70.34;98897.78;4916178;29;19982;-64
2022/03/08 05:13:06;;;;;;;;;;;;;;;-5.15;69.24;98912.00;4898841;29;20437;-64
2022/03/08 05:15:32;;;;;;;;;;;;;;;-5.07;69.17;98914.66;4899072;29;19935;-64
2022/03/08 05:17:58;;;;;;;;;;;;;;;-4.93;68.77;98905.59;4895066;29;19974;-72
2022/03/08 05:20:23;;;;;;;;;;;;;;;-4.82;68.58;98911.31;4903302;29;19927;-62
2022/03/08 05:22:49;;;;;;;;;;;;;;;-4.77;68.74;98916.03;4896920;29;20030;-65
2022/03/08 05:25:14;;;;;;;;;;;;;;;-4.70;68.71;98916.25;4896512;29;19991;-63
2022/03/08 05:27:40;;;;;;;;;;;;;;;-4.69;68.39;98913.50;4908962;29;19931;-70
2022/03/08 05:30:06;;;;;;;;;;;;;;;-4.76;68.82;98917.66;4911643;29;19927;-60
2022/03/08 05:32:32;;;;;;;;;;;;;;;-4.69;68.66;98934.19;4895245;29;20397;-62
2022/03/08 05:34:57;;;;;;;;;;;;;;;-4.63;68.56;98938.75;4905847;29;20026;-60
2022/03/08 05:37:23;;;;;;;;;;;;;;;-4.57;68.09;98935.56;4898933;29;20190;-62
2022/03/08 05:39:48;;;;;;;;;;;;;;;-4.50;67.48;98929.78;4896773;29;19927;-67
2022/03/08 05:42:14;;;;;;;;;;;;;;;-4.49;67.62;98954.72;4913701;29;19931;-63
2022/03/08 05:44:39;;;;;;;;;;;;;;;-4.43;67.24;98944.56;4914118;29;19935;-62
2022/03/08 05:47:05;;;;;;;;;;;;;;;-4.57;67.60;98939.94;4896233;29;20470;-63
2022/03/08 05:49:31;;;;;;;;;;;;;;;-4.54;68.29;98942.22;4897235;29;19991;-65
2022/03/08 05:51:57;;;;;;;;;;;;;;;-4.45;67.77;98945.66;4886247;29;20079;-63
2022/03/08 05:54:22;;;;;;;;;;;;;;;-4.41;67.92;98955.56;4915395;29;19935;-62
2022/03/08 05:56:48;;;;;;;;;;;;;;;-4.19;67.35;98962.00;4915511;29;19934;-63
2022/03/08 05:59:14;;;;;;;;;;;;;;;-4.09;66.18;98961.88;4915244;29;19927;-66
2022/03/08 06:01:40;;;;;;;;;;;;;;;-4.07;67.42;98957.38;4915818;29;20358;-62
2022/03/08 06:04:05;;;;;;;;;;;;;;;-3.89;67.44;98971.06;4915718;29;19931;-63
2022/03/08 06:06:31;;;;;;;;;;;;;;;-3.76;66.13;98970.63;4915608;29;20425;-63
2022/03/08 06:08:57;;;;;;;;;;;;;;;-3.79;66.02;98975.31;4897690;29;20368;-63
2022/03/08 06:11:22;;;;;;;;;;;;;;;-3.92;66.13;98973.16;4896767;29;19927;-63
2022/03/08 06:13:48;;;;;;;;;;;;;;;-3.98;65.89;98979.75;4908269;29;20475;-63
2022/03/08 06:16:14;;;;;;;;;;;;;;;-3.78;66.06;98979.53;4910199;29;19927;-62
2022/03/08 06:18:40;;;;;;;;;;;;;;;-3.68;65.66;98987.97;4899750;29;19975;-61
2022/03/08 06:21:05;;;;;;;;;;;;;;;-3.41;65.76;98986.97;4900939;29;19958;-65
2022/03/08 06:23:31;;;;;;;;;;;;;;;-3.46;64.98;99020.31;4917106;29;20420;-63
2022/03/08 06:25:57;;;;;;;;;;;;;;;-3.56;65.42;99004.06;4912093;29;19926;-62
2022/03/08 06:28:22;;;;;;;;;;;;;;;-3.63;64.92;98993.50;4905517;29;20039;-61
2022/03/08 06:30:48;;;;;;;;;;;;;;;-3.47;65.09;98997.94;4899769;29;20031;-63
2022/03/08 06:33:13;;;;;;;;;;;;;;;-3.25;64.49;99014.69;4904180;29;19931;-62
2022/03/08 06:35:39;;;;;;;;;;;;;;;-3.17;63.96;99019.09;4917144;29;19943;-63
2022/03/08 06:38:04;;;;;;;;;;;;;;;-3.29;64.08;99008.22;4916963;29;19931;-62
2022/03/08 06:40:30;;;;;;;;;;;;;;;-3.42;63.81;99034.56;4908351;29;19931;-63
2022/03/08 06:42:56;;;;;;;;;;;;;;;-3.45;64.41;99017.53;4899569;29;20401;-64
2022/03/08 06:45:21;;;;;;;;;;;;;;;-3.43;63.81;99020.00;4899362;29;19931;-63
2022/03/08 06:47:47;;;;;;;;;;;;;;;-3.22;63.52;99028.16;4899256;29;20091;-64
2022/03/08 06:50:15;;;;;;;;;;;;;;;-3.25;63.28;99030.25;4898397;29;20206;-63
2022/03/08 06:52:40;;;;;;;;;;;;;;;-3.18;62.64;99031.22;4905405;29;20446;-62
2022/03/08 06:55:06;;;;;;;;;;;;;;;-3.26;61.36;99020.88;4907935;29;19974;-63
2022/03/08 06:57:32;;;;;;;;;;;;;;;-3.26;62.24;99046.78;4917588;29;19926;-63
2022/03/08 06:59:57;;;;;;;;;;;;;;;-3.19;61.93;99042.59;4912003;29;19932;-62
2022/03/08 07:02:23;;;;;;;;;;;;;;;-3.33;62.96;99032.81;4912943;29;19934;-63
2022/03/08 07:04:49;;;;;;;;;;;;;;;-3.16;62.16;99036.28;4916847;29;19975;-63
2022/03/08 07:07:14;;;;;;;;;;;;;;;-3.25;61.52;99045.81;4917691;29;19973;-64
2022/03/08 07:09:40;;;;;;;;;;;;;;;-3.27;62.02;99039.97;4904077;29;20316;-64
2022/03/08 07:12:06;;;;;;;;;;;;;;;-3.23;62.02;99052.47;4898480;29;19928;-63
2022/03/08 07:14:31;;;;;;;;;;;;;;;-3.33;62.28;99045.78;4903363;29;19931;-63
2022/03/08 07:16:57;;;;;;;;;;;;;;;-3.40;62.60;99043.00;4916771;29;19949;-63
2022/03/08 07:19:22;;;;;;;;;;;;;;;-3.50;63.96;99055.25;4897708;29;20321;-63
2022/03/08 07:21:48;;;;;;;;;;;;;;;-3.48;63.66;99050.72;4882049;29;19994;-64
2022/03/08 07:24:14;;;;;;;;;;;;;;;-3.36;63.61;99064.22;4907817;29;19990;-64
2022/03/08 07:26:40;;;;;;;;;;;;;;;-3.44;63.52;99049.47;4898356;29;19932;-64
2022/03/08 07:29:06;;;;;;;;;;;;;;;-3.37;63.49;99060.03;4912904;29;20014;-66
2022/03/08 07:31:32;;;;;;;;;;;;;;;-3.45;62.89;99060.78;4898689;29;20396;-62
2022/03/08 07:33:58;;;;;;;;;;;;;;;-3.36;64.60;99059.84;4915660;29;19934;-65
2022/03/08 07:36:23;;;;;;;;;;;;;;;-3.13;62.62;99065.28;4917060;29;19996;-64
2022/03/08 07:38:49;;;;;;;;;;;;;;;-2.98;62.21;99073.25;4916832;29;19935;-65
2022/03/08 07:41:14;;;;;;;;;;;;;;;-2.94;61.17;99071.16;4916869;29;19938;-61
2022/03/08 07:43:40;;;;;;;;;;;;;;;-3.00;61.37;99073.44;4916233;29;20452;-64
2022/03/08 07:46:06;;;;;;;;;;;;;;;-3.11;62.40;99089.28;4909954;29;19974;-60
2022/03/08 07:48:32;;;;;;;;;;;;;;;-3.17;61.79;99091.69;4896713;29;19935;-64
2022/03/08 07:50:58;;;;;;;;;;;;;;;-3.39;61.97;99096.44;4913685;29;19994;-61
2022/03/08 07:53:23;;;;;;;;;;;;;;;-3.39;61.58;99088.66;4916261;29;20381;-62
2022/03/08 07:55:49;;;;;;;;;;;;;;;-3.42;61.53;99099.34;4900187;29;20290;-60
2022/03/08 07:58:15;;;;;;;;;;;;;;;-3.44;61.26;99083.16;4881560;29;19927;-64
2022/03/08 08:00:41;;;;;;;;;;;;;;;-3.40;60.61;99086.25;4898170;29;20124;-58
2022/03/08 08:03:07;;;;;;;;;;;;;;;-3.55;61.06;99081.63;4880951;29;20485;-61
2022/03/08 08:05:36;;;;;;;;;;;;;;;-3.48;61.19;99105.16;4910217;29;19931;-63
2022/03/08 08:08:02;;;;;;;;;;;;;;;-3.53;61.07;99100.44;4914792;29;19931;-63
2022/03/08 08:10:28;;;;;;;;;;;;;;;-3.37;60.41;99088.53;4898911;29;20457;-61
2022/03/08 08:12:53;;;;;;;;;;;;;;;-3.48;60.30;99105.97;4912673;29;19927;-63
2022/03/08 08:15:19;;;;;;;;;;;;;;;-3.30;59.88;99107.66;4913663;29;20304;-62
2022/03/08 08:17:44;;;;;;;;;;;;;;;-3.48;60.44;99107.75;4906838;29;19927;-64
2022/03/08 08:20:10;;;;;;;;;;;;;;;-3.35;60.45;99099.53;4898751;29;20400;-62
2022/03/08 08:22:36;;;;;;;;;;;;;;;-3.35;60.80;99110.75;4912567;29;20352;-63
2022/03/08 08:25:02;;;;;;;;;;;;;;;-3.28;60.76;99095.38;4895798;29;19935;-65
2022/03/08 08:27:28;;;;;;;;;;;;;;;-3.50;61.21;99092.38;4897036;29;20361;-61
2022/03/08 08:29:54;;;;;;;;;;;;;;;-3.33;60.80;99113.16;4908846;29;19986;-62
2022/03/08 08:32:20;;;;;;;;;;;;;;;-3.45;61.24;99104.84;4866756;29;19928;-62
2022/03/08 08:34:45;;;;;;;;;;;;;;;-3.29;60.51;99093.75;4897563;29;19939;-62
2022/03/08 08:37:11;;;;;;;;;;;;;;;-3.23;60.77;99106.91;4897319;29;19938;-62
2022/03/08 08:39:37;;;;;;;;;;;;;;;-3.14;60.67;99114.72;4903173;29;19927;-62
2022/03/08 08:42:03;;;;;;;;;;;;;;;-2.73;59.35;99114.84;4916002;29;19934;-63
2022/03/08 08:44:28;;;;;;;;;;;;;;;-2.51;58.79;99122.81;4915647;29;20386;-62
2022/03/08 08:46:54;;;;;;;;;;;;;;;-2.61;58.93;99126.56;4910404;29;20016;-62
2022/03/08 08:49:20;;;;;;;;;;;;;;;-2.59;58.97;99116.81;4915383;29;19933;-62
2022/03/08 08:51:45;;;;;;;;;;;;;;;-2.59;57.88;99135.81;4907886;29;20018;-64
2022/03/08 08:54:11;;;;;;;;;;;;;;;-2.67;57.71;99132.38;4915358;29;20412;-61
2022/03/08 08:56:38;;;;;;;;;;;;;;;-2.64;58.15;99125.09;4915478;29;19931;-63
2022/03/08 08:59:04;;;;;;;;;;;;;;;-2.55;58.94;99136.28;4880339;29;19927;-63
2022/03/08 09:01:30;;;;;;;;;;;;;;;-2.38;57.64;99131.91;4897243;29;19939;-63
2022/03/08 09:03:56;;;;;;;;;;;;;;;-2.63;57.84;99142.25;4899143;29;19927;-63
2022/03/08 09:06:21;;;;;;;;;;;;;;;-2.76;57.86;99139.31;4902567;29;19937;-62
2022/03/08 09:08:47;;;;;;;;;;;;;;;-2.85;58.17;99151.47;4912499;29;19962;-62
2022/03/08 09:11:12;;;;;;;;;;;;;;;-2.65;58.01;99146.78;4904359;29;19932;-62
2022/03/08 09:13:38;;;;;;;;;;;;;;;-2.60;57.88;99154.91;4895019;29;20013;-61
2022/03/08 09:16:04;;;;;;;;;;;;;;;-2.54;56.69;99143.91;4898766;29;20357;-60
2022/03/08 09:18:30;;;;;;;;;;;;;;;-2.45;56.97;99143.94;4903708;29;19934;-60
2022/03/08 09:20:55;;;;;;;;;;;;;;;-2.43;56.96;99157.56;4906225;29;19987;-62
2022/03/08 09:23:21;;;;;;;;;;;;;;;-2.28;57.64;99154.19;4901993;29;19938;-61
2022/03/08 09:25:47;;;;;;;;;;;;;;;-2.17;56.14;99163.44;4902309;29;19963;-60
2022/03/08 09:28:12;;;;;;;;;;;;;;;-2.34;56.55;99174.78;4887663;29;20308;-59
2022/03/08 09:30:38;;;;;;;;;;;;;;;-2.12;56.32;99163.78;4904754;29;19931;-60
2022/03/08 09:33:04;;;;;;;;;;;;;;;-2.37;56.44;99156.94;4904178;29;20346;-61
2022/03/08 09:35:29;;;;;;;;;;;;;;;-2.38;56.81;99165.66;4899692;29;19931;-59
2022/03/08 09:37:55;;;;;;;;;;;;;;;-2.45;56.06;99180.25;4897030;29;20030;-61
2022/03/08 09:40:21;;;;;;;;;;;;;;;-2.51;55.76;99176.53;4890684;29;19968;-60
2022/03/08 09:42:48;;;;;;;;;;;;;;;-2.63;56.86;99182.97;4905111;29;19927;-62
2022/03/08 09:45:14;;;;;;;;;;;;;;;-2.69;57.02;99165.44;4904524;29;19931;-58
2022/03/08 09:47:40;;;;;;;;;;;;;;;-2.55;56.80;99168.25;4906687;29;19931;-59
2022/03/08 09:50:06;;;;;;;;;;;;;;;-2.56;56.55;99187.41;4902588;29;19987;-60
2022/03/08 09:52:33;;;;;;;;;;;;;;;-2.81;57.19;99177.88;4917200;29;19931;-61
2022/03/08 09:54:58;;;;;;;;;;;;;;;-2.41;56.79;99163.41;4914467;29;19971;-62
2022/03/08 09:57:24;;;;;;;;;;;;;;;-2.18;56.81;99176.56;4910574;29;19974;-62
2022/03/08 09:59:49;;;;;;;;;;;;;;;-2.06;55.05;99172.69;4911817;29;19970;-62
2022/03/08 10:02:15;;;;;;;;;;;;;;;-1.90;55.76;99175.31;4899791;29;19927;-62
2022/03/08 10:04:41;;;;;;;;;;;;;;;-1.92;55.08;99179.03;4908786;29;19930;-63
2022/03/08 10:07:10;;;;;;;;;;;;;;;-1.64;55.61;99187.31;4899626;29;20029;-65
2022/03/08 10:09:36;;;;;;;;;;;;;;;-1.79;55.14;99186.34;4898392;29;20358;-63
2022/03/08 10:12:12;;;;;;;;;;;;;;;-1.84;55.02;99184.25;4900072;29;19931;-61
2022/03/08 10:14:39;;;;;;;;;;;;;;;-2.11;55.05;99180.97;4903443;29;19931;-63
2022/03/08 10:17:05;;;;;;;;;;;;;;;-2.12;55.76;99207.94;4918836;29;20369;-63
2022/03/08 10:19:33;;;;;;;;;;;;;;;-1.86;54.74;99187.00;4911143;29;19986;-61
2022/03/08 10:21:58;;;;;;;;;;;;;;;-1.72;55.01;99189.94;4912039;29;19927;-62
2022/03/08 10:24:25;;;;;;;;;;;;;;;-1.45;56.61;99194.75;4905779;29;19934;-63
2022/03/08 10:26:51;;;;;;;;;;;;;;;-1.33;54.09;99184.84;4909691;29;20021;-64
2022/03/08 10:29:24;;;;;;;;;;;;;;;-1.27;53.58;99191.97;4908307;29;20431;-61
2022/03/08 10:31:55;;;;;;;;;;;;;;;-1.35;54.45;99189.41;4912152;29;20316;-63
2022/03/08 10:34:21;;;;;;;;;;;;;;;-1.69;54.41;99192.19;4917117;29;20033;-62
2022/03/08 10:36:59;;;;;;;;;;;;;;;-1.64;54.44;99184.72;4918693;29;20034;-64
2022/03/08 10:39:25;;;;;;;;;;;;;;;-1.79;54.55;99188.94;4917912;29;19934;-61
2022/03/08 10:41:52;;;;;;;;;;;;;;;-1.76;54.39;99193.84;4882253;29;19927;-61
2022/03/08 10:44:30;;;;;;;;;;;;;;;-1.88;54.95;99196.75;4911881;29;19926;-62
2022/03/08 10:47:10;;;;;;;;;;;;;;;-1.84;54.34;99203.25;4918226;29;20294;-60
2022/03/08 10:49:37;;;;;;;;;;;;;;;-1.80;54.53;99195.94;4901855;29;19928;-61
2022/03/08 10:52:03;;;;;;;;;;;;;;;-1.74;54.26;99189.28;4907685;29;20030;-60
2022/03/08 10:54:30;;;;;;;;;;;;;;;-1.56;54.05;99182.09;4907060;29;19963;-62
2022/03/08 10:56:56;;;;;;;;;;;;;;;-1.46;54.11;99193.16;4905931;29;19975;-62
2022/03/08 10:59:22;;;;;;;;;;;;;;;-1.54;53.86;99193.16;4910963;29;19931;-60
2022/03/08 11:01:47;;;;;;;;;;;;;;;-1.53;54.71;99189.59;4918018;29;20349;-62
2022/03/08 11:04:20;;;;;;;;;;;;;;;-1.09;53.21;99193.56;4914006;29;20026;-60
2022/03/08 11:06:47;;;;;;;;;;;;;;;-0.91;53.62;99199.38;4896448;29;19931;-61
2022/03/08 11:09:13;;;;;;;;;;;;;;;-1.03;53.17;99206.72;4910544;29;19927;-61
2022/03/08 11:11:39;;;;;;;;;;;;;;;-1.18;52.91;99201.41;4917881;29;19931;-60
2022/03/08 11:14:04;;;;;;;;;;;;;;;-1.03;52.61;99201.53;4912415;29;20396;-61
2022/03/08 11:16:31;;;;;;;;;;;;;;;-1.08;53.26;99200.41;4898862;29;20410;-63
2022/03/08 11:18:56;;;;;;;;;;;;;;;-1.04;52.47;99199.09;4908554;29;20434;-60
2022/03/08 11:21:23;;;;;;;;;;;;;;;-1.17;52.38;99202.22;4902059;29;19939;-60
2022/03/08 11:23:48;;;;;;;;;;;;;;;-1.18;52.50;99204.00;4906048;29;20325;-62
2022/03/08 11:26:15;;;;;;;;;;;;;;;-1.31;52.85;99197.69;4916799;29;20017;-61
2022/03/08 11:28:44;;;;;;;;;;;;;;;-1.55;53.29;99212.34;4917006;29;20071;-61
2022/03/08 11:31:10;;;;;;;;;;;;;;;-1.50;53.23;99206.63;4917780;29;19982;-62
2022/03/08 11:33:51;;;;;;;;;;;;;;;-1.24;52.59;99204.63;4893254;29;19969;-61
2022/03/08 11:36:20;;;;;;;;;;;;;;;-1.33;52.66;99213.44;4886104;29;19931;-61
2022/03/08 11:39:24;;;;;;;;;;;;;;;-1.52;53.46;99214.59;4908934;29;20026;-62
2022/03/08 11:41:51;;;;;;;;;;;;;;;-1.30;52.73;99215.72;4906703;29;20091;-60
2022/03/08 11:44:24;;;;;;;;;;;;;;;-1.13;52.37;99210.47;4906237;29;20067;-63
2022/03/08 11:46:58;;;;;;;;;;;;;;;-1.33;52.78;99210.84;4895087;29;19937;-62
2022/03/08 11:49:39;;;;;;;;;;;;;;;-1.58;53.39;99217.06;4905779;29;19928;-62
2022/03/08 11:52:12;;;;;;;;;;;;;;;-1.63;53.12;99207.94;4899079;29;19931;-62
2022/03/08 11:54:38;;;;;;;;;;;;;;;-1.87;53.76;99213.16;4907600;29;20428;-60
2022/03/08 11:57:04;;;;;;;;;;;;;;;-1.84;53.51;99205.84;4904681;29;19967;-60
2022/03/08 11:59:29;;;;;;;;;;;;;;;-1.81;53.99;99211.69;4906978;29;20015;-61
2022/03/08 12:01:55;;;;;;;;;;;;;;;-1.76;54.05;99218.03;4904847;29;20068;-61
2022/03/08 12:04:21;;;;;;;;;;;;;;;-1.77;53.54;99210.38;4906171;29;20355;-61
2022/03/08 12:06:50;;;;;;;;;;;;;;;-1.78;53.95;99221.75;4889897;29;20330;-61
2022/03/08 12:09:18;;;;;;;;;;;;;;;-1.64;53.19;99239.31;4911403;29;19923;-61
2022/03/08 12:11:53;;;;;;;;;;;;;;;-1.72;52.61;99232.31;4917403;29;20026;-61
2022/03/08 12:14:24;;;;;;;;;;;;;;;-1.86;53.46;99235.53;4912823;29;19954;-61
2022/03/08 12:16:50;;;;;;;;;;;;;;;-1.89;53.18;99238.47;4913957;29;19931;-62
2022/03/08 12:19:20;;;;;;;;;;;;;;;-1.89;53.77;99235.88;4913366;29;19942;-62
2022/03/08 12:21:46;;;;;;;;;;;;;;;-1.97;53.24;99241.88;4881349;29;19939;-61
2022/03/08 12:24:13;;;;;;;;;;;;;;;-2.09;53.89;99237.94;4880625;29;20388;-62
2022/03/08 12:26:39;;;;;;;;;;;;;;;-2.05;53.97;99252.25;4898143;29;19931;-61
2022/03/08 12:29:09;;;;;;;;;;;;;;;-2.03;53.69;99245.09;4897440;29;20472;-61
2022/03/08 12:31:54;;;;;;;;;;;;;;;-2.30;54.60;99238.38;4897516;29;19931;-61
2022/03/08 12:34:38;;;;;;;;;;;;;;;-2.31;54.14;99247.97;4897398;29;19934;-61
2022/03/08 12:37:22;;;;;;;;;;;;;;;-2.19;54.00;99251.06;4896405;29;19931;-61
2022/03/08 12:39:53;;;;;;;;;;;;;;;-2.37;54.85;99252.97;4902723;29;19931;-61
2022/03/08 12:42:22;;;;;;;;;;;;;;;-2.26;54.26;99263.09;4916440;29;19926;-61
2022/03/08 12:44:58;;;;;;;;;;;;;;;-2.19;54.03;99273.63;4915779;29;19931;-60